Time;durP1;ratioP1;P1;durP2;ratioP2;P2;SDS_P1;SDS_P2;PMS_P1;PMS_P2;Temp;Humidity;BMP_temperature;BMP_pressure;BME280_temperature;BME280_humidity;BME280_pressure;Samples;Min_cycle;Max_cycle;Signal;HPM_P1;HPM_P2
2023/07/29 00:03:58;;;;;;;4.50;2.60;;;19.90;99.90;;;18.80;100.00;99669.03;10276768;28;98141;-85
2023/07/29 00:09:03;;;;;;;5.82;2.65;;;19.90;99.90;;;18.78;100.00;99664.94;10255364;28;99105;-86
2023/07/29 00:14:06;;;;;;;5.70;2.67;;;19.90;99.90;;;18.73;100.00;99664.81;10279235;28;97456;-86
2023/07/29 00:19:10;;;;;;;4.38;3.30;;;19.90;99.90;;;18.67;100.00;99678.16;10269851;28;98485;-86
2023/07/29 00:24:13;;;;;;;4.97;2.63;;;19.80;99.90;;;18.60;100.00;99669.34;10266889;28;96917;-87
2023/07/29 00:29:17;;;;;;;4.25;2.72;;;19.70;99.90;;;18.54;100.00;99674.84;10279057;28;96747;-86
2023/07/29 00:34:20;;;;;;;5.88;2.90;;;19.70;99.90;;;18.48;100.00;99681.16;10271591;28;96850;-86
2023/07/29 00:39:24;;;;;;;5.30;3.30;;;19.60;99.90;;;18.41;100.00;99671.31;10300417;28;96555;-86
2023/07/29 00:44:27;;;;;;;4.97;3.10;;;19.50;99.90;;;18.33;100.00;99674.34;10268424;28;96573;-86
2023/07/29 00:49:32;;;;;;;3.90;3.28;;;19.40;99.90;;;18.22;100.00;99667.06;10250031;28;96675;-85
2023/07/29 00:54:35;;;;;;;5.75;3.00;;;19.30;99.90;;;18.13;100.00;99663.88;10278578;28;96689;-86
2023/07/29 00:59:40;;;;;;;7.72;3.00;;;19.20;99.90;;;18.13;100.00;99663.06;10268424;28;96641;-86
2023/07/29 01:04:43;;;;;;;6.28;3.30;;;19.20;99.90;;;18.11;100.00;99670.53;10272930;28;96709;-85
2023/07/29 01:10:26;;;;;;;3.97;2.90;;;19.20;99.90;;;18.07;100.00;99664.81;10297408;28;96667;-86
2023/07/29 01:16:01;;;;;;;4.90;3.13;;;19.20;99.90;;;18.05;100.00;99666.06;10267142;28;96522;-85
2023/07/29 01:21:10;;;;;;;4.00;2.75;;;19.20;99.90;;;17.97;100.00;99669.09;10273300;28;96921;-85
2023/07/29 01:26:14;;;;;;;6.07;2.88;;;19.10;99.90;;;17.92;100.00;99657.16;10281609;28;96879;-85
2023/07/29 01:31:43;;;;;;;4.63;2.83;;;19.00;99.90;;;17.90;100.00;99670.00;10279588;28;96632;-85
2023/07/29 01:36:51;;;;;;;6.93;2.57;;;19.00;99.90;;;17.84;100.00;99667.41;10227603;28;96640;-85
2023/07/29 01:41:55;;;;;;;3.67;3.00;;;18.90;99.90;;;17.80;100.00;99658.97;10294941;28;96748;-85
2023/07/29 01:46:59;;;;;;;5.53;3.25;;;18.90;99.90;;;17.79;100.00;99659.22;10273914;28;97266;-85
2023/07/29 01:52:04;;;;;;;5.05;2.83;;;18.90;99.90;;;17.78;100.00;99653.03;10281108;28;96595;-85
2023/07/29 01:57:08;;;;;;;5.45;2.65;;;18.90;99.90;;;17.78;100.00;99658.41;10279423;28;97468;-85
2023/07/29 02:02:11;;;;;;;4.28;3.05;;;18.90;99.90;;;17.79;100.00;99656.53;10273644;28;98169;-85
2023/07/29 02:07:15;;;;;;;4.72;2.40;;;18.90;99.90;;;17.76;100.00;99651.63;10264761;28;96593;-85
2023/07/29 02:12:18;;;;;;;6.10;3.40;;;18.90;99.90;;;17.73;100.00;99650.19;10265849;28;97512;-85
2023/07/29 02:17:22;;;;;;;5.13;3.80;;;18.90;99.90;;;17.69;100.00;99648.16;10256859;28;98399;-86
2023/07/29 02:22:25;;;;;;;5.82;3.15;;;18.90;99.90;;;17.62;100.00;99667.06;10253191;28;96543;-85
2023/07/29 02:27:29;;;;;;;5.05;2.88;;;18.80;99.90;;;17.54;100.00;99660.13;10275008;28;96726;-85
2023/07/29 02:32:32;;;;;;;5.60;2.85;;;18.70;99.90;;;17.48;100.00;99652.16;10250711;28;96684;-86
2023/07/29 02:37:37;;;;;;;3.90;2.88;;;18.60;99.90;;;17.46;100.00;99665.00;10273713;28;98088;-85
2023/07/29 02:42:40;;;;;;;5.30;2.85;;;18.60;99.90;;;17.41;100.00;99673.72;10275330;28;96617;-85
2023/07/29 02:47:44;;;;;;;5.88;3.75;;;18.50;99.90;;;17.36;100.00;99669.03;10275083;28;98815;-85
2023/07/29 02:52:47;;;;;;;4.97;2.80;;;18.50;99.90;;;17.28;100.00;99663.97;10272301;28;96515;-85
2023/07/29 02:57:54;;;;;;;3.75;2.85;;;18.40;99.90;;;17.18;100.00;99671.72;10295456;28;96682;-84
2023/07/29 03:02:57;;;;;;;4.22;2.80;;;18.30;99.90;;;17.12;100.00;99673.44;10271542;28;97339;-85
2023/07/29 03:08:01;;;;;;;3.45;3.00;;;18.20;99.90;;;17.12;100.00;99678.81;10263366;28;96582;-85
2023/07/29 03:13:05;;;;;;;5.45;3.00;;;18.30;99.90;;;17.13;100.00;99677.75;10233786;28;96677;-85
2023/07/29 03:18:08;;;;;;;6.68;4.60;;;18.20;99.90;;;17.13;100.00;99680.44;10269305;28;97719;-85
2023/07/29 03:23:12;;;;;;;8.82;4.20;;;18.30;99.90;;;17.12;100.00;99680.66;10277226;28;97589;-84
2023/07/29 03:28:15;;;;;;;3.78;2.67;;;18.30;99.90;;;17.10;100.00;99680.91;10273632;28;97229;-85
2023/07/29 03:33:19;;;;;;;6.13;3.08;;;18.30;99.90;;;17.12;100.00;99683.34;10284994;28;96603;-84
2023/07/29 03:38:23;;;;;;;7.15;2.70;;;18.20;99.90;;;17.10;100.00;99680.91;10261450;28;96665;-85
2023/07/29 03:43:26;;;;;;;3.63;2.85;;;18.30;99.90;;;17.13;100.00;99680.44;10261150;28;98005;-85
2023/07/29 03:48:31;;;;;;;5.78;2.78;;;18.30;99.90;;;17.17;100.00;99680.81;10268798;28;99184;-85
2023/07/29 03:53:35;;;;;;;5.32;3.45;;;18.30;99.90;;;17.22;100.00;99682.84;10257066;28;96946;-85
2023/07/29 03:58:40;;;;;;;7.28;2.95;;;18.40;99.90;;;17.29;100.00;99692.47;10264389;28;96948;-85
2023/07/29 04:03:44;;;;;;;3.38;2.65;;;18.40;99.90;;;17.32;100.00;99693.88;10262126;28;97371;-84
2023/07/29 04:08:49;;;;;;;3.65;2.63;;;18.50;99.90;;;17.36;100.00;99697.75;10264339;28;97467;-85
2023/07/29 04:13:52;;;;;;;3.63;2.85;;;18.50;99.90;;;17.42;100.00;99699.53;10276066;28;97827;-85
2023/07/29 04:18:56;;;;;;;3.13;2.20;;;18.50;99.90;;;17.55;100.00;99699.38;10243883;28;96691;-85
2023/07/29 04:23:59;;;;;;;5.78;2.20;;;18.60;99.90;;;17.71;100.00;99691.75;10264998;28;97355;-85
2023/07/29 04:29:03;;;;;;;5.63;2.50;;;18.80;99.90;;;17.91;100.00;99676.19;10223742;28;98593;-85
2023/07/29 04:34:06;;;;;;;6.78;3.65;;;19.00;99.90;;;18.13;100.00;99663.88;10231380;28;97167;-84
2023/07/29 04:39:10;;;;;;;4.85;2.90;;;19.20;99.90;;;18.34;100.00;99667.91;10232543;28;97412;-85
2023/07/29 04:44:14;;;;;;;3.47;2.50;;;19.40;99.90;;;18.54;100.00;99672.16;10242807;28;96838;-85
2023/07/29 04:49:17;;;;;;;4.10;2.55;;;19.60;99.90;;;18.75;100.00;99674.28;10216385;28;97818;-85
2023/07/29 04:54:21;;;;;;;6.30;2.80;;;19.80;99.90;;;18.90;100.00;99680.03;10216750;28;96575;-85
2023/07/29 04:59:25;;;;;;;4.60;2.92;;;20.00;99.90;;;19.07;100.00;99684.69;10241753;28;98970;-85
2023/07/29 05:04:28;;;;;;;4.20;2.83;;;20.10;99.90;;;19.23;100.00;99676.72;10238578;28;96772;-85
2023/07/29 05:09:32;;;;;;;3.80;2.20;;;20.30;99.90;;;19.39;100.00;99688.63;10235528;28;97992;-84
2023/07/29 05:14:36;;;;;;;5.53;2.88;;;20.50;99.90;;;19.53;100.00;99686.47;10250974;28;96792;-84
2023/07/29 05:19:39;;;;;;;9.25;3.33;;;20.60;99.90;;;19.71;100.00;99680.13;10245580;28;96640;-84
2023/07/29 05:24:43;;;;;;;2.90;2.47;;;20.80;99.90;;;19.93;100.00;99688.38;10256686;28;96675;-84
2023/07/29 05:29:46;;;;;;;3.30;2.67;;;21.00;99.90;;;20.10;100.00;99694.63;10243366;28;98809;-84
2023/07/29 05:34:50;;;;;;;5.28;2.65;;;21.20;99.90;;;20.26;100.00;99701.09;10239299;28;97631;-84
2023/07/29 05:39:54;;;;;;;4.38;2.85;;;21.40;99.90;;;20.41;100.00;99701.38;10235322;28;96675;-84
2023/07/29 05:44:57;;;;;;;8.65;3.15;;;21.50;99.90;;;20.56;100.00;99707.03;10238522;28;96983;-84
2023/07/29 05:50:04;;;;;;;4.95;2.03;;;21.70;99.90;;;20.77;100.00;99701.97;10211049;28;98293;-84
2023/07/29 05:55:08;;;;;;;3.70;2.13;;;21.90;99.90;;;20.95;100.00;99722.50;10238521;28;97736;-84
2023/07/29 06:00:12;;;;;;;3.92;3.10;;;22.10;99.90;;;21.08;100.00;99724.84;10240507;28;96873;-84
2023/07/29 06:05:16;;;;;;;5.55;2.53;;;22.20;99.90;;;21.19;100.00;99729.34;10229484;28;98492;-85
2023/07/29 06:10:20;;;;;;;4.80;2.70;;;22.30;99.90;;;21.29;97.09;99728.66;10253284;28;96599;-84
2023/07/29 06:15:23;;;;;;;4.53;2.30;;;22.40;99.90;;;21.40;92.53;99730.44;10237758;28;98814;-84
2023/07/29 06:20:27;;;;;;;3.13;2.28;;;22.50;99.90;;;21.54;91.97;99733.63;10240270;28;96527;-84
2023/07/29 06:25:31;;;;;;;3.40;1.92;;;22.60;99.90;;;21.76;88.82;99739.81;10248239;28;96659;-84
2023/07/29 06:30:34;;;;;;;3.15;2.10;;;22.80;99.90;;;22.04;89.78;99738.81;10291140;28;96643;-84
2023/07/29 06:35:38;;;;;;;3.63;1.95;;;23.10;99.90;;;22.30;87.29;99734.47;10264084;28;96570;-84
2023/07/29 06:40:41;;;;;;;3.38;1.83;;;23.40;99.90;;;22.52;86.01;99737.13;10262653;28;96553;-85
2023/07/29 06:45:45;;;;;;;2.25;1.88;;;23.50;99.90;;;22.74;82.95;99737.06;10292427;28;98212;-84
2023/07/29 06:50:50;;;;;;;3.30;2.10;;;23.80;99.90;;;22.97;81.50;99722.34;10250548;28;96490;-84
2023/07/29 06:55:54;;;;;;;2.30;1.88;;;24.00;99.90;;;23.19;80.31;99725.72;10259636;28;98532;-84
2023/07/29 07:00:58;;;;;;;3.53;1.80;;;24.20;99.90;;;23.39;79.92;99714.19;10263921;28;96600;-85
2023/07/29 07:06:03;;;;;;;4.63;1.98;;;24.50;99.90;;;23.66;81.19;99718.66;10275125;28;96574;-84
2023/07/29 07:11:06;;;;;;;3.42;1.80;;;24.70;99.90;;;23.92;77.60;99719.56;10252873;28;96680;-84
2023/07/29 07:16:10;;;;;;;2.72;1.67;;;25.00;99.90;;;24.17;75.33;99711.50;10262295;28;98128;-84
2023/07/29 07:21:14;;;;;;;2.08;1.67;;;25.20;99.90;;;24.36;73.46;99711.00;10274627;28;96734;-84
2023/07/29 07:26:17;;;;;;;1.73;1.50;;;25.40;99.90;;;24.62;74.36;99709.91;10279831;28;96678;-84
2023/07/29 07:31:22;;;;;;;8.32;1.70;;;25.70;99.90;;;24.81;71.32;99704.72;10272686;28;96693;-84
2023/07/29 07:36:26;;;;;;;3.53;2.22;;;25.90;99.30;;;25.08;68.63;99704.47;10249473;28;96920;-84
2023/07/29 07:41:29;;;;;;;2.38;1.63;;;26.10;97.90;;;25.20;64.50;99704.97;10245977;28;96545;-84
2023/07/29 07:46:33;;;;;;;2.92;1.17;;;26.30;96.10;;;25.30;61.43;99688.59;10277106;28;96867;-84
2023/07/29 07:51:37;;;;;;;2.30;1.52;;;26.40;94.60;;;25.41;62.65;99704.91;10271918;28;98253;-84
2023/07/29 07:56:40;;;;;;;4.25;1.98;;;26.50;94.60;;;25.29;63.84;99700.56;10271135;28;96647;-85
2023/07/29 08:01:44;;;;;;;1.88;1.50;;;26.40;94.50;;;25.17;62.89;99697.34;10258481;28;98404;-85
2023/07/29 08:06:47;;;;;;;2.38;1.42;;;26.30;94.00;;;25.21;63.25;99701.16;10246483;28;96562;-85
2023/07/29 08:11:51;;;;;;;2.65;1.48;;;26.20;94.10;;;25.27;62.08;99693.81;10252333;28;98678;-85
2023/07/29 08:16:54;;;;;;;1.50;1.20;;;26.30;93.30;;;25.42;59.05;99693.72;10261098;28;98288;-84
2023/07/29 08:21:58;;;;;;;1.98;1.27;;;26.40;92.60;;;25.55;59.49;99684.16;10241531;28;98393;-85
2023/07/29 08:27:03;;;;;;;1.55;1.30;;;26.50;92.30;;;25.69;58.94;99685.19;10248141;28;96668;-85
2023/07/29 08:32:06;;;;;;;3.55;1.10;;;26.70;91.70;;;25.79;59.04;99682.47;10234332;28;96686;-85
2023/07/29 08:37:10;;;;;;;1.67;1.15;;;26.80;91.60;;;25.96;59.02;99682.06;10252602;28;96443;-84
2023/07/29 08:42:18;;;;;;;1.40;1.20;;;26.90;91.30;;;26.11;56.56;99675.72;10250074;28;97000;-85
2023/07/29 08:47:22;;;;;;;4.40;1.40;;;27.10;90.40;;;26.25;56.72;99673.97;10241269;28;96622;-85
2023/07/29 08:52:27;;;;;;;1.75;1.20;;;27.20;90.60;;;26.51;57.50;99665.63;10238232;28;98228;-85
2023/07/29 08:57:30;;;;;;;1.55;1.10;;;27.50;90.40;;;26.66;56.43;99663.56;10258435;28;96487;-85
2023/07/29 09:02:34;;;;;;;1.77;1.10;;;27.70;90.00;;;26.87;55.74;99661.47;10216792;28;97480;-86
2023/07/29 09:07:39;;;;;;;1.35;1.00;;;27.90;88.90;;;27.06;50.67;99661.56;10253698;28;96679;-86
2023/07/29 09:12:43;;;;;;;2.17;1.30;;;28.10;85.40;;;27.16;52.20;99652.44;10250932;28;97260;-86
2023/07/29 09:17:47;;;;;;;1.55;0.98;;;28.20;84.40;;;27.22;51.20;99659.47;10231702;28;97612;-87
2023/07/29 09:22:50;;;;;;;1.00;0.90;;;28.20;83.10;;;27.25;51.49;99649.91;10234200;28;97378;-86
2023/07/29 09:28:07;;;;;;;1.50;1.17;;;28.30;82.80;;;27.24;51.97;99638.19;10250983;28;97299;-85
2023/07/29 09:33:10;;;;;;;1.42;1.00;;;28.30;83.00;;;27.39;52.15;99628.97;10238528;28;96869;-86
2023/07/29 09:38:15;;;;;;;3.30;1.20;;;28.40;83.60;;;27.59;52.21;99628.72;10251140;28;97529;-86
2023/07/29 09:43:19;;;;;;;1.42;1.08;;;28.60;83.30;;;27.78;50.66;99623.28;10193859;28;97080;-86
2023/07/29 09:48:23;;;;;;;2.22;1.00;;;28.80;82.10;;;27.89;48.08;99634.84;10257835;28;96550;-87
2023/07/29 09:53:27;;;;;;;1.17;0.98;;;28.90;77.70;;;27.95;46.38;99629.03;10246155;28;96791;-86
2023/07/29 09:58:30;;;;;;;3.38;1.10;;;29.00;76.10;;;28.02;45.73;99633.31;10240584;28;96650;-86
2023/07/29 10:03:35;;;;;;;2.88;1.00;;;29.00;74.70;;;28.08;45.87;99638.41;10223918;28;97183;-87
2023/07/29 10:08:40;;;;;;;2.65;1.05;;;29.10;74.00;;;28.21;45.82;99631.38;10230887;28;97571;-87
2023/07/29 10:13:45;;;;;;;3.15;0.90;;;29.20;73.60;;;28.52;46.44;99626.22;10239727;28;96612;-88
2023/07/29 10:19:10;;;;;;;1.00;0.70;;;29.50;73.80;;;28.60;44.60;99627.44;10212410;28;96701;-86
2023/07/29 10:24:20;;;;;;;1.48;1.00;;;29.70;72.00;;;28.54;44.17;99634.91;10239787;28;96694;-86
2023/07/29 10:29:24;;;;;;;1.35;0.80;;;29.60;71.30;;;28.31;44.53;99625.75;10264103;28;98279;-87
2023/07/29 10:34:29;;;;;;;1.63;1.00;;;29.40;70.90;;;28.11;44.09;99648.72;10268693;28;96978;-87
2023/07/29 10:39:41;;;;;;;1.80;0.90;;;29.10;70.10;;;27.86;45.08;99633.53;10272341;28;97915;-87
2023/07/29 10:44:52;;;;;;;2.33;1.10;;;28.90;70.80;;;27.64;45.95;99636.00;10257755;28;96639;-86
2023/07/29 10:49:58;;;;;;;2.30;0.90;;;28.60;71.50;;;27.48;46.73;99632.69;10251461;28;97266;-87
2023/07/29 10:55:03;;;;;;;1.48;0.88;;;28.40;72.20;;;27.38;47.72;99632.81;10242308;28;96613;-87
2023/07/29 11:00:08;;;;;;;2.08;0.90;;;28.30;73.10;;;27.33;47.44;99630.97;10261635;28;96657;-86
2023/07/29 11:05:19;;;;;;;1.45;1.02;;;28.30;72.80;;;27.51;48.21;99626.63;10263996;28;97886;-86
2023/07/29 11:10:22;;;;;;;1.10;0.82;;;28.40;73.90;;;27.88;47.55;99622.31;10278993;28;97728;-87
2023/07/29 11:15:29;;;;;;;2.83;1.02;;;28.80;73.60;;;28.28;46.33;99615.41;10278482;28;96656;-86
2023/07/29 11:20:33;;;;;;;1.98;0.93;;;29.30;72.50;;;28.61;46.38;99609.91;10267956;28;97200;-88
2023/07/29 11:25:38;;;;;;;3.20;1.00;;;29.60;72.20;;;28.86;45.94;99606.72;10275596;28;97309;-88
2023/07/29 11:30:41;;;;;;;2.00;1.30;;;29.90;71.70;;;29.08;44.77;99602.47;10277972;28;96716;-87
2023/07/29 11:35:45;;;;;;;1.70;1.10;;;30.10;70.60;;;29.32;45.38;99603.06;10256413;28;96685;-88
2023/07/29 11:41:00;;;;;;;1.33;1.00;;;30.30;71.40;;;29.49;43.75;99600.50;10266277;28;97025;-88
2023/07/29 11:46:03;;;;;;;1.58;1.27;;;30.50;69.00;;;29.70;43.96;99594.59;10278976;28;97444;-87
2023/07/29 11:51:07;;;;;;;2.90;1.13;;;30.60;69.60;;;29.81;43.83;99604.22;10278153;28;97919;-89
2023/07/29 11:56:12;;;;;;;1.65;1.10;;;30.70;69.30;;;29.89;42.48;99592.50;10278751;28;96541;-87
2023/07/29 12:01:16;;;;;;;1.25;1.00;;;30.90;67.40;;;30.03;42.89;99587.75;10275359;28;96771;-89
2023/07/29 12:06:20;;;;;;;1.67;1.17;;;31.10;67.40;;;30.06;41.97;99587.16;10278097;28;96842;-89
2023/07/29 12:11:24;;;;;;;1.75;1.10;;;31.20;66.10;;;30.27;42.23;99579.25;10243196;28;96408;-88
2023/07/29 12:16:34;;;;;;;3.45;1.00;;;31.40;66.40;;;30.61;42.03;99575.06;10262642;28;96932;-89
2023/07/29 12:21:40;;;;;;;1.17;0.90;;;31.70;66.70;;;30.75;41.85;99566.75;10264539;28;98567;-89
2023/07/29 12:26:44;;;;;;;2.47;1.20;;;31.80;65.70;;;30.71;39.94;99563.84;10273323;28;96714;-90
2023/07/29 12:31:48;;;;;;;1.33;1.02;;;31.80;64.20;;;30.58;40.44;99561.97;10257080;28;96794;-89
2023/07/29 12:36:54;;;;;;;1.25;0.98;;;31.60;63.90;;;30.58;39.75;99571.00;10263015;28;98372;-91
2023/07/29 12:41:59;;;;;;;1.50;1.10;;;31.60;63.50;;;30.29;40.27;99559.75;10266040;28;98927;-88
2023/07/29 12:47:05;;;;;;;1.88;1.00;;;31.30;63.70;;;30.25;41.24;99559.56;10288909;28;96947;-89
2023/07/29 12:52:08;;;;;;;2.63;1.30;;;31.20;64.30;;;30.33;40.96;99555.25;10272112;28;96908;-90
2023/07/29 12:57:12;;;;;;;1.50;1.10;;;31.30;64.40;;;30.11;40.65;99548.69;10266506;28;98139;-89
2023/07/29 13:02:15;;;;;;;2.97;1.00;;;31.20;64.00;;;29.68;41.48;99550.28;10262123;28;97582;-89
2023/07/29 13:07:19;;;;;;;3.35;1.05;;;30.70;64.50;;;29.50;43.62;99552.84;10282810;28;96788;-89
2023/07/29 13:12:22;;;;;;;1.20;1.10;;;30.50;66.40;;;29.52;42.95;99547.91;10269962;28;96627;-89
2023/07/29 13:17:27;;;;;;;2.03;1.40;;;30.60;65.80;;;29.51;43.47;99545.47;10280180;28;98200;-90
2023/07/29 13:22:30;;;;;;;1.63;1.23;;;30.50;66.00;;;29.96;42.14;99532.59;10280705;28;96727;-89
2023/07/29 13:27:33;;;;;;;2.08;1.30;;;31.20;65.30;;;30.72;41.73;99529.00;10295504;28;97635;-89
2023/07/29 13:32:37;;;;;;;1.40;1.20;;;32.20;64.00;;;31.37;38.85;99517.22;10284227;28;98122;-91
2023/07/29 13:37:41;;;;;;;2.83;1.45;;;32.80;61.60;;;31.88;36.06;99519.13;10278772;28;96771;-89
2023/07/29 13:42:44;;;;;;;2.30;1.40;;;33.10;59.20;;;32.07;36.19;99513.28;10249083;28;96676;-90
2023/07/29 13:47:50;;;;;;;1.38;1.10;;;33.00;58.80;;;31.91;36.21;99504.75;10273835;28;98455;-90
2023/07/29 13:52:53;;;;;;;2.45;1.50;;;32.60;58.70;;;31.88;36.14;99497.16;10262692;28;96841;-92
2023/07/29 13:57:57;;;;;;;2.13;1.23;;;32.50;58.10;;;31.85;34.69;99497.03;10272020;28;96786;-90
2023/07/29 14:03:00;;;;;;;1.20;1.10;;;32.50;57.10;;;31.76;35.04;99501.69;10275100;28;98451;-90
2023/07/29 14:08:04;;;;;;;1.58;1.20;;;32.50;57.20;;;31.67;34.80;99491.53;10277943;28;98398;-91
2023/07/29 14:13:08;;;;;;;1.30;1.00;;;32.40;57.00;;;31.70;35.76;99487.31;10280887;28;96787;-90
2023/07/29 14:18:11;;;;;;;1.63;1.20;;;32.40;57.60;;;31.76;35.97;99485.19;10298765;28;96404;-89
2023/07/29 14:23:15;;;;;;;2.20;1.20;;;32.50;57.10;;;31.62;35.53;99477.16;10286985;28;97127;-90
2023/07/29 14:28:18;;;;;;;1.95;1.30;;;32.60;56.90;;;31.79;35.39;99474.41;10244489;28;96780;-89
2023/07/29 14:33:22;;;;;;;1.83;1.25;;;32.80;56.80;;;31.83;34.10;99486.34;10272406;28;97229;-89
2023/07/29 14:38:26;;;;;;;1.23;1.00;;;32.90;55.50;;;32.14;35.36;99477.03;10283491;28;96568;-89
2023/07/29 14:43:30;;;;;;;3.42;1.30;;;33.30;56.20;;;32.33;35.13;99469.22;10279597;28;96670;-89
2023/07/29 14:48:34;;;;;;;1.65;1.10;;;33.90;55.80;;;32.23;34.20;99475.88;10277787;28;96673;-89
2023/07/29 14:53:39;;;;;;;1.83;1.15;;;34.00;54.60;;;31.86;35.53;99474.72;10249579;28;96662;-89
2023/07/29 14:58:42;;;;;;;2.17;1.30;;;33.50;55.40;;;31.27;36.00;99468.13;10279251;28;96526;-88
2023/07/29 15:03:47;;;;;;;1.70;1.30;;;32.60;55.60;;;30.75;36.83;99473.50;10280344;28;97435;-89
2023/07/29 15:08:50;;;;;;;1.88;1.30;;;31.90;56.80;;;30.29;37.99;99474.81;10296715;28;96538;-88
2023/07/29 15:13:54;;;;;;;2.78;1.30;;;31.30;57.90;;;29.86;38.75;99478.88;10275878;28;96818;-89
2023/07/29 15:18:58;;;;;;;1.98;1.30;;;30.80;58.60;;;29.50;38.93;99473.47;10280724;28;96548;-89
2023/07/29 15:24:01;;;;;;;2.13;1.40;;;30.40;58.80;;;29.28;40.30;99476.22;10277477;28;96778;-89
2023/07/29 15:29:06;;;;;;;2.53;1.60;;;30.20;60.00;;;29.15;40.25;99479.78;10243698;28;96671;-88
2023/07/29 15:34:10;;;;;;;1.88;1.27;;;30.00;60.10;;;28.98;41.18;99481.25;10271929;28;96557;-88
2023/07/29 15:39:14;;;;;;;2.38;1.45;;;29.80;60.70;;;28.95;42.18;99479.13;10278632;28;96720;-88
2023/07/29 15:44:18;;;;;;;2.38;1.30;;;29.80;61.90;;;28.98;42.47;99483.97;10275298;28;96617;-89
2023/07/29 15:49:21;;;;;;;2.22;1.70;;;29.80;62.40;;;28.95;41.95;99481.84;10274219;28;96739;-89
2023/07/29 15:54:25;;;;;;;2.50;1.42;;;29.80;62.10;;;28.84;42.46;99496.81;10278458;28;96592;-89
2023/07/29 15:59:29;;;;;;;1.65;1.23;;;29.70;62.90;;;28.74;43.37;99500.59;10277791;28;97753;-90
2023/07/29 16:04:35;;;;;;;2.17;1.50;;;29.60;63.40;;;28.62;43.84;99499.50;10279020;28;96475;-89
2023/07/29 16:09:39;;;;;;;3.25;1.50;;;29.40;63.60;;;28.47;43.81;99503.31;10278834;28;96830;-89
2023/07/29 16:14:42;;;;;;;1.58;1.20;;;29.30;63.80;;;28.32;44.46;99509.09;10278163;28;96481;-89
2023/07/29 16:19:59;;;;;;;2.15;1.40;;;29.20;64.30;;;28.16;44.92;99511.25;10276481;28;96754;-89
2023/07/29 16:25:04;;;;;;;5.18;1.58;;;29.00;64.90;;;28.02;45.19;99507.69;10274639;28;98247;-89
2023/07/29 16:30:08;;;;;;;2.28;1.38;;;28.80;65.10;;;27.86;45.36;99516.13;10236609;28;96697;-88
2023/07/29 16:35:12;;;;;;;2.08;1.30;;;28.70;65.20;;;27.72;45.79;99518.03;10222251;28;97905;-89
2023/07/29 16:40:16;;;;;;;3.08;1.20;;;28.60;65.70;;;27.60;45.99;99525.81;10264418;28;96637;-89
2023/07/29 16:45:20;;;;;;;1.75;1.40;;;28.50;66.00;;;27.46;46.67;99523.81;10276371;28;96608;-88
2023/07/29 16:50:23;;;;;;;1.73;1.30;;;28.30;66.80;;;27.33;47.14;99527.28;10275536;28;96513;-88
2023/07/29 16:55:27;;;;;;;2.67;1.65;;;28.20;67.30;;;27.20;48.04;99547.94;10265280;28;97904;-89
2023/07/29 17:00:32;;;;;;;3.33;1.90;;;28.00;67.80;;;27.04;48.22;99540.22;10221600;28;96524;-89
2023/07/29 17:05:36;;;;;;;2.45;1.58;;;27.80;68.00;;;26.88;49.01;99554.06;10239310;28;96817;-90
2023/07/29 17:10:40;;;;;;;1.80;1.48;;;27.70;68.70;;;26.78;50.10;99556.09;10276159;28;96621;-89
2023/07/29 17:15:43;;;;;;;3.03;1.60;;;27.60;69.70;;;26.64;51.45;99558.69;10266094;28;98541;-90
2023/07/29 17:20:47;;;;;;;4.68;1.70;;;27.40;70.60;;;26.47;51.96;99550.97;10253253;28;98274;-90
2023/07/29 17:25:51;;;;;;;2.72;1.52;;;27.30;71.40;;;26.32;52.35;99551.06;10262386;28;96694;-90
2023/07/29 17:30:54;;;;;;;3.60;1.63;;;27.10;71.90;;;26.22;52.45;99552.00;10267054;28;96592;-90
2023/07/29 17:35:58;;;;;;;2.85;1.52;;;27.00;72.20;;;26.12;52.88;99560.25;10281866;28;96566;-89
2023/07/29 17:41:02;;;;;;;2.33;1.38;;;26.90;72.20;;;26.01;52.14;99556.00;10282009;28;96612;-89
2023/07/29 17:46:06;;;;;;;2.70;1.15;;;26.80;72.10;;;25.92;52.85;99563.16;10280470;28;96843;-89
2023/07/29 17:51:10;;;;;;;1.42;0.93;;;26.70;72.30;;;25.75;51.20;99552.66;10283585;28;96643;-89
2023/07/29 17:56:13;;;;;;;1.52;0.75;;;26.60;71.40;;;25.62;50.61;99551.38;10265602;28;96460;-89
2023/07/29 18:01:16;;;;;;;1.60;1.02;;;26.50;70.60;;;25.51;50.45;99555.25;10282194;28;96673;-89
2023/07/29 18:06:20;;;;;;;1.40;0.90;;;26.40;70.30;;;25.36;50.93;99562.41;10297434;28;96544;-89
2023/07/29 18:11:24;;;;;;;1.52;0.98;;;26.20;70.80;;;25.26;50.99;99564.38;10297054;28;96573;-88
2023/07/29 18:16:27;;;;;;;1.30;0.90;;;26.10;70.70;;;25.13;51.88;99567.69;10266975;28;99345;-89
2023/07/29 18:21:31;;;;;;;3.88;0.90;;;25.90;71.30;;;24.98;53.11;99572.06;10268866;28;96794;-89
2023/07/29 18:26:35;;;;;;;1.80;1.13;;;25.80;72.10;;;24.83;54.33;99558.56;10252583;28;96647;-89
2023/07/29 18:31:38;;;;;;;2.08;1.40;;;25.70;73.00;;;24.67;55.23;99582.22;10221793;28;96654;-87
2023/07/29 18:36:42;;;;;;;2.42;1.10;;;25.50;73.70;;;24.53;56.21;99581.19;10254801;28;96507;-89
2023/07/29 18:41:48;;;;;;;1.48;1.13;;;25.40;74.60;;;24.34;57.95;99585.50;10220713;28;98885;-89
2023/07/29 18:46:52;;;;;;;3.90;2.28;;;25.20;76.00;;;24.23;59.50;99588.25;10184588;28;96963;-89
2023/07/29 18:51:57;;;;;;;3.17;1.52;;;25.10;77.30;;;24.12;60.37;99589.34;10201142;28;97727;-88
2023/07/29 18:57:01;;;;;;;4.38;1.60;;;24.90;78.20;;;24.02;61.19;99598.28;10213745;28;97426;-88
2023/07/29 19:02:06;;;;;;;4.32;1.20;;;24.80;78.70;;;23.97;61.07;99597.47;10237899;28;96601;-88
2023/07/29 19:07:09;;;;;;;1.70;1.42;;;24.80;79.20;;;23.89;61.62;99612.38;10239420;28;96555;-87
2023/07/29 19:12:13;;;;;;;3.25;2.22;;;24.80;79.40;;;23.83;62.64;99593.66;10217549;28;98239;-87
2023/07/29 19:17:17;;;;;;;2.22;1.60;;;24.70;80.00;;;23.68;63.39;99597.97;10225353;28;96520;-87
2023/07/29 19:22:21;;;;;;;2.00;1.52;;;24.60;80.60;;;23.47;64.90;99607.94;10207319;28;96694;-89
2023/07/29 19:27:24;;;;;;;2.17;1.40;;;24.40;81.70;;;23.30;65.76;99598.38;10243586;28;98318;-88
2023/07/29 19:32:28;;;;;;;2.75;1.15;;;24.20;82.70;;;23.17;66.09;99583.44;10254898;28;96650;-88
2023/07/29 19:37:31;;;;;;;2.13;1.35;;;24.10;83.30;;;23.05;67.24;99569.31;10221504;28;97000;-91
2023/07/29 19:42:35;;;;;;;1.80;1.10;;;23.90;84.10;;;22.94;66.98;99565.72;10252779;28;96758;-87
2023/07/29 19:47:38;;;;;;;1.77;1.10;;;23.80;84.50;;;22.87;66.85;99570.56;10236013;28;96699;-88
2023/07/29 19:52:42;;;;;;;1.65;1.20;;;23.70;84.60;;;22.76;67.13;99566.16;10253320;28;97090;-89
2023/07/29 19:57:46;;;;;;;1.80;1.20;;;23.60;84.80;;;22.67;67.09;99558.53;10252220;28;98538;-89
2023/07/29 20:02:49;;;;;;;1.63;1.02;;;23.50;85.00;;;22.59;67.43;99537.34;10254139;28;96529;-88
2023/07/29 20:07:53;;;;;;;2.38;1.25;;;23.40;85.30;;;22.50;68.05;99552.47;10255636;28;96547;-88
2023/07/29 20:12:57;;;;;;;1.60;1.13;;;23.40;85.90;;;22.42;68.51;99572.72;10254895;28;96563;-88
2023/07/29 20:18:00;;;;;;;3.38;1.13;;;23.20;86.40;;;22.32;68.72;99564.53;10252044;28;96590;-88
2023/07/29 20:23:04;;;;;;;2.10;1.40;;;23.20;86.80;;;22.24;69.47;99578.53;10256624;28;96407;-88
2023/07/29 20:28:08;;;;;;;2.28;1.10;;;23.10;87.40;;;22.20;69.54;99576.63;10241070;28;96648;-88
2023/07/29 20:33:12;;;;;;;1.70;1.20;;;23.00;87.60;;;22.20;69.23;99587.47;10218373;28;96828;-88
2023/07/29 20:38:16;;;;;;;2.00;1.40;;;23.10;87.70;;;22.21;68.73;99589.09;10246681;28;97814;-88
2023/07/29 20:43:21;;;;;;;2.10;1.30;;;23.00;87.40;;;22.25;68.37;99591.03;10253546;28;96649;-88
2023/07/29 20:48:25;;;;;;;1.92;1.38;;;23.10;87.30;;;22.25;68.44;99593.72;10219887;28;97002;-88
2023/07/29 20:53:29;;;;;;;1.58;1.15;;;23.10;87.20;;;22.24;68.21;99599.38;10204032;28;96641;-88
2023/07/29 20:58:33;;;;;;;1.60;1.20;;;23.10;87.20;;;22.19;67.86;99586.66;10226633;28;97027;-88
2023/07/29 21:03:37;;;;;;;1.90;0.90;;;23.10;87.20;;;22.14;68.19;99595.53;10244021;28;96481;-88